Terminal Aerodrome Forecast
Issued by NWS Sioux Falls, SD

Home | Current Version | Previous Version | Text Only | Print | Product List | Glossary Off
Versions: 1 2 3 4 5 6 7 8 9 10 11 12 13 14

000
FTUS43 KFSD 270520
TAFFSD
TAF
KFSD 270520Z 2706/2806 VRB03KT P6SM SKC
     FM271300 17008KT P6SM FEW250
     FM271500 18013G22KT P6SM FEW200
     FM272000 17019G27KT P6SM SCT200
     FM280000 17017G28KT P6SM BKN070=

USA.gov is the U.S. government's official web portal to all federal, state and local government web resources and services.